createdAt,value
2023-01-29T00:00:15.918Z,101191.03
2023-01-29T00:00:47.730Z,101190.16
2023-01-29T00:01:21.698Z,101188.44
2023-01-29T00:01:54.007Z,101192.75
2023-01-29T00:02:25.995Z,101190.16
2023-01-29T00:02:57.899Z,101185.88
2023-01-29T00:03:31.133Z,101191.00
2023-01-29T00:04:02.890Z,101186.75
2023-01-29T00:04:44.460Z,101194.44
2023-01-29T00:05:26.652Z,101190.16
2023-01-29T00:05:59.951Z,101198.72
2023-01-29T00:06:32.644Z,101187.59
2023-01-29T00:07:06.074Z,101190.16
2023-01-29T00:07:37.729Z,101188.44
2023-01-29T00:08:09.369Z,101193.56
2023-01-29T00:08:41.047Z,101194.44
2023-01-29T00:09:13.680Z,101191.88
2023-01-29T00:09:45.401Z,101186.72
2023-01-29T00:10:17.489Z,101194.44
2023-01-29T00:10:49.575Z,101192.72
2023-01-29T00:11:21.210Z,101191.88
2023-01-29T00:11:52.875Z,101195.28
2023-01-29T00:12:24.510Z,101193.59
2023-01-29T00:12:56.195Z,101191.88
2023-01-29T00:13:27.863Z,101191.88
2023-01-29T00:13:59.594Z,101190.13
2023-01-29T00:14:33.445Z,101195.28
2023-01-29T00:15:09.065Z,101197.84
2023-01-29T00:15:40.702Z,101195.28
2023-01-29T00:16:12.509Z,101197.84
2023-01-29T00:16:44.175Z,101200.44
2023-01-29T00:17:15.863Z,101198.69
2023-01-29T00:17:47.571Z,101194.41
2023-01-29T00:18:19.207Z,101200.41
2023-01-29T00:18:53.164Z,101194.41
2023-01-29T00:19:24.871Z,101194.41
2023-01-29T00:19:56.493Z,101207.25
2023-01-29T00:20:30.290Z,101199.53
2023-01-29T00:21:01.936Z,101196.97
2023-01-29T00:21:33.662Z,101197.84
2023-01-29T00:22:05.317Z,101201.25
2023-01-29T00:22:37.020Z,101201.22
2023-01-29T00:23:08.715Z,101201.22
2023-01-29T00:23:40.349Z,101203.81
2023-01-29T00:24:12.577Z,101202.94
2023-01-29T00:24:44.432Z,101205.50
2023-01-29T00:25:16.152Z,101203.81
2023-01-29T00:25:48.001Z,101199.53
2023-01-29T00:26:22.088Z,101203.84
2023-01-29T00:26:53.745Z,101204.66
2023-01-29T00:27:25.418Z,101208.97
2023-01-29T00:27:57.195Z,101209.81
2023-01-29T00:28:28.879Z,101214.09
2023-01-29T00:29:03.921Z,101210.69
2023-01-29T00:29:35.553Z,101217.53
2023-01-29T00:30:15.564Z,101216.69
2023-01-29T00:30:49.575Z,101212.41
2023-01-29T00:31:24.398Z,101213.28
2023-01-29T00:31:56.289Z,101214.13
2023-01-29T00:32:30.555Z,101216.69
2023-01-29T00:33:02.700Z,101217.53
2023-01-29T00:33:34.483Z,101214.13
2023-01-29T00:34:06.120Z,101217.53
2023-01-29T00:34:40.185Z,101218.41
2023-01-29T00:35:12.445Z,101218.41
2023-01-29T00:35:44.330Z,101217.56
2023-01-29T00:36:18.277Z,101216.69
2023-01-29T00:36:49.943Z,101222.69
2023-01-29T00:37:21.588Z,101225.25
2023-01-29T00:37:55.579Z,101223.56
2023-01-29T00:38:29.405Z,101217.56
2023-01-29T00:39:02.804Z,101220.97
2023-01-29T00:39:47.408Z,101221.81
2023-01-29T00:40:20.046Z,101220.13
2023-01-29T00:41:10.572Z,101220.13
2023-01-29T00:42:01.036Z,101220.97
2023-01-29T00:42:54.351Z,101220.13
2023-01-29T00:43:46.398Z,101219.25
2023-01-29T00:44:57.342Z,101222.69
2023-01-29T00:45:29.152Z,101223.56
2023-01-29T00:46:00.863Z,101217.53
2023-01-29T00:46:32.563Z,101222.69
2023-01-29T00:47:25.564Z,101221.81
2023-01-29T00:47:57.218Z,101219.28
2023-01-29T00:48:30.088Z,101221.81
2023-01-29T00:49:03.797Z,101220.97
2023-01-29T00:49:35.425Z,101220.13
2023-01-29T00:50:10.451Z,101223.53
2023-01-29T00:50:44.871Z,101222.69
2023-01-29T00:51:16.507Z,101225.25
2023-01-29T00:52:06.730Z,101225.25
2023-01-29T00:52:45.357Z,101225.25
2023-01-29T00:53:17.040Z,101222.69
2023-01-29T00:53:50.556Z,101233.84
2023-01-29T00:54:22.174Z,101224.41
2023-01-29T00:54:59.259Z,101221.84
2023-01-29T00:55:30.924Z,101231.25
2023-01-29T00:56:02.574Z,101228.69
2023-01-29T00:56:37.114Z,101232.97
2023-01-29T00:57:08.924Z,101223.53
2023-01-29T00:57:40.550Z,101233.81
2023-01-29T00:58:14.576Z,101233.81
2023-01-29T00:58:48.822Z,101227.84
2023-01-29T00:59:20.448Z,101232.13
2023-01-29T00:59:55.268Z,101226.97
2023-01-29T01:00:28.775Z,101228.69
2023-01-29T01:01:02.320Z,101232.13
2023-01-29T01:01:52.240Z,101218.44
2023-01-29T01:02:45.241Z,101226.13
2023-01-29T01:03:17.552Z,101219.28
2023-01-29T01:03:49.301Z,101219.28
2023-01-29T01:04:20.949Z,101223.53
2023-01-29T01:04:52.602Z,101215.84
2023-01-29T01:05:27.394Z,101221.84
2023-01-29T01:06:06.644Z,101229.56
2023-01-29T01:06:39.579Z,101220.16
2023-01-29T01:07:44.189Z,101220.97
2023-01-29T01:08:34.392Z,101220.13
2023-01-29T01:09:25.369Z,101221.00
2023-01-29T01:10:18.166Z,101211.56
2023-01-29T01:10:59.281Z,101218.44
2023-01-29T01:11:30.912Z,101213.31
2023-01-29T01:12:02.588Z,101214.13
2023-01-29T01:12:34.243Z,101216.72
2023-01-29T01:13:53.249Z,101216.72
2023-01-29T01:14:24.916Z,101217.59
2023-01-29T01:14:56.574Z,101215.88
2023-01-29T01:15:37.967Z,101211.59
2023-01-29T01:16:16.052Z,101216.72
2023-01-29T01:16:51.373Z,101211.56
2023-01-29T01:17:25.658Z,101213.28
2023-01-29T01:18:00.285Z,101208.16
2023-01-29T01:18:32.009Z,101210.72
2023-01-29T01:19:05.105Z,101217.59
2023-01-29T01:19:36.750Z,101215.88
2023-01-29T01:20:11.537Z,101217.59
2023-01-29T01:20:43.713Z,101210.72
2023-01-29T01:21:22.545Z,101211.59
2023-01-29T01:21:54.157Z,101213.31
2023-01-29T01:22:25.787Z,101217.59
2023-01-29T01:22:57.687Z,101212.47
2023-01-29T01:23:29.306Z,101216.72
2023-01-29T01:24:00.996Z,101214.16
2023-01-29T01:24:32.817Z,101215.88
2023-01-29T01:25:05.458Z,101214.16
2023-01-29T01:25:37.303Z,101217.56
2023-01-29T01:26:13.112Z,101218.44
2023-01-29T01:26:44.734Z,101217.59
2023-01-29T01:27:16.613Z,101221.84
2023-01-29T01:27:48.330Z,101217.56
2023-01-29T01:29:05.529Z,101217.56
2023-01-29T01:29:37.196Z,101221.88
2023-01-29T01:30:14.157Z,101221.03
2023-01-29T01:30:46.514Z,101224.41
2023-01-29T01:31:18.778Z,101218.44
2023-01-29T01:31:50.611Z,101221.88
2023-01-29T01:32:22.333Z,101221.88
2023-01-29T01:32:57.058Z,101223.56
2023-01-29T01:33:29.015Z,101226.16
2023-01-29T01:34:02.031Z,101218.44
2023-01-29T01:34:33.778Z,101217.56
2023-01-29T01:35:05.945Z,101226.16
2023-01-29T01:35:41.474Z,101221.88
2023-01-29T01:36:14.006Z,101225.28
2023-01-29T01:36:46.002Z,101220.16
2023-01-29T01:37:20.043Z,101226.13
2023-01-29T01:37:51.792Z,101221.84
2023-01-29T01:38:24.463Z,101217.56
2023-01-29T01:38:56.160Z,101221.03
2023-01-29T01:39:27.865Z,101221.84
2023-01-29T01:39:59.612Z,101220.16
2023-01-29T01:40:31.342Z,101222.72
2023-01-29T01:41:02.987Z,101227.00
2023-01-29T01:41:37.231Z,101227.00
2023-01-29T01:42:15.056Z,101221.84
2023-01-29T01:42:56.319Z,101231.25
2023-01-29T01:43:27.943Z,101232.09
2023-01-29T01:44:02.232Z,101236.41
2023-01-29T01:45:03.847Z,101234.69
2023-01-29T01:45:36.664Z,101231.28
2023-01-29T01:46:12.125Z,101233.84
2023-01-29T01:46:43.906Z,101228.69
2023-01-29T01:47:19.853Z,101232.97
2023-01-29T01:48:12.951Z,101241.53
2023-01-29T01:48:49.847Z,101240.66
2023-01-29T01:49:21.827Z,101235.56
2023-01-29T01:49:56.993Z,101238.09
2023-01-29T01:50:37.132Z,101239.81
2023-01-29T01:51:09.227Z,101244.94
2023-01-29T01:51:45.617Z,101243.25
2023-01-29T01:52:19.617Z,101240.69
2023-01-29T01:52:56.912Z,101244.13
2023-01-29T01:53:39.306Z,101238.13
2023-01-29T01:54:21.145Z,101243.22
2023-01-29T01:54:52.828Z,101240.69
2023-01-29T01:55:28.460Z,101238.97
2023-01-29T01:56:05.162Z,101238.97
2023-01-29T01:56:44.600Z,101243.25
2023-01-29T01:57:27.082Z,101239.81
2023-01-29T01:58:10.106Z,101246.66
2023-01-29T01:58:50.590Z,101242.41
2023-01-29T01:59:23.967Z,101239.81
2023-01-29T02:00:12.221Z,101244.09
2023-01-29T02:00:43.947Z,101244.09
2023-01-29T02:01:15.925Z,101233.81
2023-01-29T02:01:51.199Z,101241.53
2023-01-29T02:02:41.497Z,101241.53
2023-01-29T02:03:32.489Z,101236.38
2023-01-29T02:04:50.858Z,101239.81
2023-01-29T02:05:41.501Z,101242.38
2023-01-29T02:06:31.997Z,101241.53
2023-01-29T02:07:26.486Z,101243.25
2023-01-29T02:08:18.341Z,101236.41
2023-01-29T02:09:16.329Z,101236.41
2023-01-29T02:09:53.724Z,101244.09
2023-01-29T02:10:29.974Z,101248.38
2023-01-29T02:11:02.096Z,101245.81
2023-01-29T02:11:33.817Z,101247.53
2023-01-29T02:12:09.383Z,101248.38
2023-01-29T02:12:42.917Z,101245.81
2023-01-29T02:13:19.502Z,101242.41
2023-01-29T02:13:53.691Z,101244.97
2023-01-29T02:14:25.475Z,101249.25
2023-01-29T02:14:57.203Z,101244.09
2023-01-29T02:15:29.829Z,101249.22
2023-01-29T02:16:01.466Z,101246.66
2023-01-29T02:16:35.689Z,101244.94
2023-01-29T02:17:14.108Z,101252.66
2023-01-29T02:17:50.926Z,101248.38
2023-01-29T02:18:22.797Z,101246.66
2023-01-29T02:18:54.524Z,101250.09
2023-01-29T02:20:02.940Z,101239.81
2023-01-29T02:20:35.423Z,101247.50
2023-01-29T02:21:31.567Z,101255.22
2023-01-29T02:22:17.153Z,101249.25
2023-01-29T02:23:15.956Z,101244.94
2023-01-29T02:24:22.815Z,101245.81
2023-01-29T02:25:27.806Z,101252.66
2023-01-29T02:26:17.093Z,101248.38
2023-01-29T02:27:04.665Z,101253.50
2023-01-29T02:28:04.230Z,101253.50
2023-01-29T02:28:41.833Z,101258.63
2023-01-29T02:29:33.700Z,101251.78
2023-01-29T02:30:15.134Z,101250.97
2023-01-29T02:31:22.714Z,101256.09
2023-01-29T02:32:21.344Z,101255.22
2023-01-29T02:33:35.614Z,101259.50
2023-01-29T02:34:26.073Z,101253.50
2023-01-29T02:35:32.738Z,101262.06
2023-01-29T02:36:21.252Z,101251.78
2023-01-29T02:37:03.452Z,101255.22
2023-01-29T02:37:50.004Z,101256.09
2023-01-29T02:38:24.319Z,101256.91
2023-01-29T02:39:28.253Z,101259.50
2023-01-29T02:40:26.195Z,101256.91
2023-01-29T02:41:20.980Z,101256.91
2023-01-29T02:42:02.981Z,101258.63
2023-01-29T02:42:56.429Z,101257.78
2023-01-29T02:43:51.708Z,101262.91
2023-01-29T02:44:43.918Z,101264.66
2023-01-29T02:45:39.325Z,101262.91
2023-01-29T02:46:22.846Z,101267.22
2023-01-29T02:47:04.644Z,101267.19
2023-01-29T02:47:51.809Z,101262.06
2023-01-29T02:48:29.207Z,101264.63
2023-01-29T02:49:22.645Z,101259.50
2023-01-29T02:50:11.625Z,101266.34
2023-01-29T02:50:52.326Z,101268.91
2023-01-29T02:51:45.163Z,101264.66
2023-01-29T02:52:27.946Z,101264.63
2023-01-29T02:53:19.562Z,101268.91
2023-01-29T02:54:11.790Z,101269.75
2023-01-29T02:54:43.357Z,101270.63
2023-01-29T02:55:40.877Z,101267.19
2023-01-29T02:56:19.084Z,101269.75
2023-01-29T02:57:00.549Z,101274.03
2023-01-29T02:57:39.667Z,101266.34
2023-01-29T02:58:34.781Z,101274.91
2023-01-29T02:59:15.641Z,101270.63
2023-01-29T03:00:03.256Z,101270.63
2023-01-29T03:00:42.694Z,101268.91
2023-01-29T03:01:22.263Z,101275.75
2023-01-29T03:02:02.467Z,101274.03
2023-01-29T03:02:44.049Z,101268.06
2023-01-29T03:03:30.445Z,101272.31
2023-01-29T03:04:11.065Z,101274.06
2023-01-29T03:04:50.803Z,101271.47
2023-01-29T03:05:38.373Z,101281.75
2023-01-29T03:06:12.122Z,101275.75
2023-01-29T03:07:10.143Z,101283.44
2023-01-29T03:07:52.106Z,101277.47
2023-01-29T03:08:43.003Z,101272.31
2023-01-29T03:09:23.701Z,101274.03
2023-01-29T03:09:56.932Z,101276.59
2023-01-29T03:10:48.073Z,101277.47
2023-01-29T03:11:21.179Z,101275.75
2023-01-29T03:11:59.011Z,101273.19
2023-01-29T03:12:35.336Z,101278.31
2023-01-29T03:13:19.743Z,101275.75
2023-01-29T03:14:01.189Z,101276.59
2023-01-29T03:15:03.593Z,101279.19
2023-01-29T03:15:46.941Z,101276.59
2023-01-29T03:16:44.612Z,101277.47
2023-01-29T03:17:16.450Z,101272.31
2023-01-29T03:17:55.888Z,101272.31
2023-01-29T03:18:36.814Z,101271.47
2023-01-29T03:19:11.182Z,101277.47
2023-01-29T03:19:47.055Z,101277.47
2023-01-29T03:20:26.517Z,101268.06
2023-01-29T03:21:27.546Z,101277.47
2023-01-29T03:22:02.097Z,101277.47
2023-01-29T03:22:38.161Z,101280.88
2023-01-29T03:23:25.857Z,101277.47
2023-01-29T03:24:18.609Z,101283.47
2023-01-29T03:25:15.694Z,101284.31
2023-01-29T03:26:06.084Z,101282.59
2023-01-29T03:26:56.979Z,101284.28
2023-01-29T03:28:12.711Z,101285.16
2023-01-29T03:29:05.577Z,101291.16
2023-01-29T03:30:00.687Z,101284.31
2023-01-29T03:30:56.906Z,101282.59
2023-01-29T03:31:49.832Z,101285.16
2023-01-29T03:32:29.418Z,101282.59
2023-01-29T03:33:06.692Z,101283.44
2023-01-29T03:33:48.701Z,101282.59
2023-01-29T03:34:30.898Z,101285.16
2023-01-29T03:35:06.542Z,101289.44
2023-01-29T03:35:48.423Z,101289.44
2023-01-29T03:36:48.559Z,101286.88
2023-01-29T03:37:29.905Z,101292.00
2023-01-29T03:38:09.779Z,101291.16
2023-01-29T03:38:41.706Z,101295.41
2023-01-29T03:39:17.054Z,101286.84
2023-01-29T03:39:49.103Z,101294.59
2023-01-29T03:40:20.752Z,101296.28
2023-01-29T03:41:06.327Z,101296.28
2023-01-29T03:42:08.344Z,101289.41
2023-01-29T03:43:11.340Z,101293.72
2023-01-29T03:43:48.986Z,101290.28
2023-01-29T03:44:41.958Z,101292.00
2023-01-29T03:45:50.873Z,101291.13
2023-01-29T03:46:31.042Z,101294.56
2023-01-29T03:47:16.309Z,101296.28
2023-01-29T03:48:06.354Z,101297.13
2023-01-29T03:48:55.153Z,101298.84
2023-01-29T03:49:44.739Z,101294.56
2023-01-29T03:50:27.413Z,101298.84
2023-01-29T03:51:08.101Z,101295.44
2023-01-29T03:51:47.901Z,101296.28
2023-01-29T03:52:44.832Z,101296.28
2023-01-29T03:53:19.384Z,101297.13
2023-01-29T03:54:11.195Z,101298.00
2023-01-29T03:55:24.968Z,101302.25
2023-01-29T03:56:17.973Z,101309.13
2023-01-29T03:57:03.642Z,101305.69
2023-01-29T03:57:45.685Z,101304.00
2023-01-29T03:58:37.168Z,101304.84
2023-01-29T03:59:27.406Z,101301.41
2023-01-29T04:00:22.853Z,101301.41
2023-01-29T04:01:01.330Z,101302.28
2023-01-29T04:01:48.697Z,101308.25
2023-01-29T04:02:28.024Z,101301.44
2023-01-29T04:03:22.987Z,101288.56
2023-01-29T04:04:14.322Z,101293.69
2023-01-29T04:04:52.102Z,101295.41
2023-01-29T04:05:31.501Z,101298.84
2023-01-29T04:06:19.074Z,101297.97
2023-01-29T04:06:55.387Z,101293.69
2023-01-29T04:07:33.475Z,101294.56
2023-01-29T04:08:26.119Z,101297.97
2023-01-29T04:09:13.758Z,101294.56
2023-01-29T04:09:52.584Z,101286.84
2023-01-29T04:10:35.158Z,101290.25
2023-01-29T04:11:18.007Z,101285.13
2023-01-29T04:11:55.323Z,101285.97
2023-01-29T04:12:36.022Z,101286.81
2023-01-29T04:13:15.024Z,101289.38
2023-01-29T04:13:47.587Z,101280.84
2023-01-29T04:14:19.389Z,101287.69
2023-01-29T04:14:56.381Z,101289.41
2023-01-29T04:15:35.518Z,101281.69
2023-01-29T04:16:14.742Z,101294.53
2023-01-29T04:16:52.277Z,101286.84
2023-01-29T04:17:33.029Z,101298.81
2023-01-29T04:18:04.729Z,101290.25
2023-01-29T04:18:36.789Z,101289.38
2023-01-29T04:19:08.484Z,101294.53
2023-01-29T04:19:40.677Z,101294.56
2023-01-29T04:20:12.579Z,101296.25
2023-01-29T04:20:44.896Z,101291.13
2023-01-29T04:21:17.328Z,101294.53
2023-01-29T04:21:55.627Z,101293.69
2023-01-29T04:22:39.507Z,101288.53
2023-01-29T04:23:26.417Z,101292.81
2023-01-29T04:23:58.096Z,101289.41
2023-01-29T04:24:31.416Z,101291.09
2023-01-29T04:25:08.489Z,101286.84
2023-01-29T04:25:50.128Z,101286.00
2023-01-29T04:26:28.870Z,101290.25
2023-01-29T04:27:09.222Z,101285.13
2023-01-29T04:27:59.629Z,101285.13
2023-01-29T04:28:53.899Z,101282.56
2023-01-29T04:29:30.127Z,101283.41
2023-01-29T04:30:18.749Z,101287.69
2023-01-29T04:30:59.693Z,101283.41
2023-01-29T04:31:48.954Z,101284.28
2023-01-29T04:32:40.853Z,101289.44
2023-01-29T04:33:12.402Z,101284.25
2023-01-29T04:34:08.761Z,101280.84
2023-01-29T04:35:01.768Z,101287.69
2023-01-29T04:35:36.288Z,101272.28
2023-01-29T04:36:08.344Z,101281.69
2023-01-29T04:37:32.783Z,101283.41
2023-01-29T04:38:22.592Z,101283.41
2023-01-29T04:39:25.552Z,101284.28
2023-01-29T04:40:30.819Z,101282.53
2023-01-29T04:41:43.529Z,101287.72
2023-01-29T04:42:35.155Z,101283.44
2023-01-29T04:43:16.390Z,101285.13
2023-01-29T04:44:00.499Z,101285.97
2023-01-29T04:44:52.368Z,101285.97
2023-01-29T04:45:54.538Z,101282.56
2023-01-29T04:46:26.115Z,101285.97
2023-01-29T04:47:12.145Z,101289.38
2023-01-29T04:48:18.855Z,101288.53
2023-01-29T04:49:09.974Z,101291.09
2023-01-29T04:50:00.403Z,101291.97
2023-01-29T04:50:42.412Z,101292.81
2023-01-29T04:51:33.485Z,101289.41
2023-01-29T04:52:31.872Z,101294.56
2023-01-29T04:53:35.127Z,101290.28
2023-01-29T04:54:28.385Z,101297.97
2023-01-29T04:55:17.992Z,101297.97
2023-01-29T04:55:51.773Z,101293.69
2023-01-29T04:56:51.293Z,101297.97
2023-01-29T04:57:32.780Z,101292.84
2023-01-29T04:58:28.331Z,101290.28
2023-01-29T04:59:07.077Z,101288.56
2023-01-29T04:59:57.439Z,101287.69
2023-01-29T05:00:37.009Z,101289.41
2023-01-29T05:01:16.294Z,101289.38
2023-01-29T05:01:51.306Z,101291.97
2023-01-29T05:02:26.803Z,101283.41
2023-01-29T05:03:01.604Z,101286.00
2023-01-29T05:03:38.243Z,101285.13
2023-01-29T05:04:15.274Z,101288.56
2023-01-29T05:04:50.110Z,101287.72
2023-01-29T05:05:22.186Z,101290.28
2023-01-29T05:05:57.314Z,101283.41
2023-01-29T05:07:19.484Z,101279.13
2023-01-29T05:07:51.580Z,101282.56
2023-01-29T05:08:26.206Z,101280.81
2023-01-29T05:09:00.554Z,101287.69
2023-01-29T05:09:34.295Z,101284.25
2023-01-29T05:10:11.698Z,101285.97
2023-01-29T05:10:44.520Z,101283.41
2023-01-29T05:11:18.279Z,101287.72
2023-01-29T05:11:51.683Z,101289.41
2023-01-29T05:12:28.957Z,101282.56
2023-01-29T05:13:04.231Z,101287.69
2023-01-29T05:13:41.084Z,101281.69
2023-01-29T05:14:17.092Z,101284.25
2023-01-29T05:14:51.699Z,101283.41
2023-01-29T05:15:30.448Z,101283.41
2023-01-29T05:16:12.085Z,101286.81
2023-01-29T05:16:51.632Z,101288.56
2023-01-29T05:17:23.455Z,101288.53
2023-01-29T05:18:01.883Z,101285.09
2023-01-29T05:18:36.776Z,101288.53
2023-01-29T05:19:14.026Z,101288.53
2023-01-29T05:19:47.269Z,101286.81
2023-01-29T05:20:19.110Z,101291.09
2023-01-29T05:20:51.731Z,101289.38
2023-01-29T05:21:25.049Z,101291.13
2023-01-29T05:21:58.708Z,101292.81
2023-01-29T05:22:33.700Z,101290.25
2023-01-29T05:23:10.222Z,101291.97
2023-01-29T05:23:53.131Z,101291.09
2023-01-29T05:24:26.458Z,101293.69
2023-01-29T05:25:00.246Z,101291.09
2023-01-29T05:25:33.551Z,101294.53
2023-01-29T05:26:10.928Z,101291.97
2023-01-29T05:27:06.684Z,101289.38
2023-01-29T05:27:57.181Z,101297.09
2023-01-29T05:28:28.842Z,101285.97
2023-01-29T05:29:00.477Z,101291.09
2023-01-29T05:29:34.751Z,101289.38
2023-01-29T05:30:07.053Z,101289.38
2023-01-29T05:30:42.410Z,101287.69
2023-01-29T05:31:16.769Z,101285.09
2023-01-29T05:31:48.605Z,101287.66
2023-01-29T05:32:20.360Z,101284.25
2023-01-29T05:32:52.002Z,101284.28
2023-01-29T05:33:31.328Z,101285.97
2023-01-29T05:34:02.997Z,101283.38
2023-01-29T05:34:34.715Z,101283.38
2023-01-29T05:35:06.734Z,101285.09
2023-01-29T05:35:38.421Z,101290.22
2023-01-29T05:36:17.774Z,101284.25
2023-01-29T05:36:50.157Z,101287.69
2023-01-29T05:37:21.805Z,101287.69
2023-01-29T05:37:54.418Z,101287.66
2023-01-29T05:38:26.254Z,101285.13
2023-01-29T05:38:57.873Z,101286.81
2023-01-29T05:39:29.647Z,101289.41
2023-01-29T05:40:47.241Z,101290.25
2023-01-29T05:41:18.900Z,101288.53
2023-01-29T05:41:51.494Z,101286.84
2023-01-29T05:42:24.061Z,101292.84
2023-01-29T05:42:55.712Z,101291.13
2023-01-29T05:43:27.360Z,101288.53
2023-01-29T05:43:58.995Z,101289.41
2023-01-29T05:44:34.201Z,101287.66
2023-01-29T05:45:08.918Z,101291.13
2023-01-29T05:45:40.590Z,101295.41
2023-01-29T05:46:12.221Z,101293.69
2023-01-29T05:46:44.546Z,101293.69
2023-01-29T05:47:24.412Z,101296.25
2023-01-29T05:48:00.115Z,101292.84
2023-01-29T05:48:32.465Z,101289.41
2023-01-29T05:49:04.438Z,101294.53
2023-01-29T05:49:38.645Z,101282.56
2023-01-29T05:50:13.431Z,101292.84
2023-01-29T05:50:45.481Z,101290.28
2023-01-29T05:51:17.121Z,101289.44
2023-01-29T05:51:48.761Z,101297.09
2023-01-29T05:52:20.456Z,101296.25
2023-01-29T05:53:02.231Z,101292.84
2023-01-29T05:53:36.782Z,101291.97
2023-01-29T05:54:08.414Z,101292.84
2023-01-29T05:54:40.040Z,101298.81
2023-01-29T05:55:11.809Z,101297.97
2023-01-29T05:55:49.739Z,101297.97
2023-01-29T05:56:21.441Z,101290.25
2023-01-29T05:56:53.088Z,101297.13
2023-01-29T05:57:24.794Z,101293.69
2023-01-29T05:57:56.470Z,101296.25
2023-01-29T05:58:29.993Z,101299.69
2023-01-29T05:59:01.703Z,101301.38
2023-01-29T05:59:35.636Z,101298.81
2023-01-29T06:00:09.186Z,101295.38
2023-01-29T06:00:41.777Z,101307.38
2023-01-29T06:01:22.228Z,101304.81
2023-01-29T06:01:56.573Z,101303.97
2023-01-29T06:02:31.652Z,101298.81
2023-01-29T06:03:03.545Z,101303.13
2023-01-29T06:03:35.300Z,101300.53
2023-01-29T06:04:07.001Z,101297.97
2023-01-29T06:04:38.686Z,101302.25
2023-01-29T06:05:12.668Z,101296.25
2023-01-29T06:05:44.539Z,101305.66
2023-01-29T06:06:17.036Z,101304.81
2023-01-29T06:06:48.739Z,101304.81
2023-01-29T06:07:20.384Z,101301.38
2023-01-29T06:07:52.077Z,101303.94
2023-01-29T06:08:23.708Z,101302.25
2023-01-29T06:08:56.342Z,101304.81
2023-01-29T06:09:27.990Z,101297.13
2023-01-29T06:10:01.817Z,101304.81
2023-01-29T06:10:33.507Z,101307.38
2023-01-29T06:11:08.627Z,101307.41
2023-01-29T06:11:40.688Z,101309.94
2023-01-29T06:12:16.745Z,101312.53
2023-01-29T06:12:50.671Z,101306.53
2023-01-29T06:13:24.775Z,101312.53
2023-01-29T06:13:56.430Z,101312.53
2023-01-29T06:14:28.132Z,101309.13
2023-01-29T06:14:59.770Z,101314.25
2023-01-29T06:15:33.808Z,101319.41
2023-01-29T06:16:11.803Z,101315.09
2023-01-29T06:16:47.327Z,101318.53
2023-01-29T06:17:18.988Z,101317.69
2023-01-29T06:17:53.067Z,101315.97
2023-01-29T06:18:26.837Z,101322.81
2023-01-29T06:18:58.458Z,101318.53
2023-01-29T06:19:32.095Z,101326.25
2023-01-29T06:20:04.888Z,101313.41
2023-01-29T06:20:37.556Z,101322.81
2023-01-29T06:21:12.675Z,101317.66
2023-01-29T06:21:44.446Z,101327.94
2023-01-29T06:22:16.089Z,101321.94
2023-01-29T06:22:47.812Z,101327.13
2023-01-29T06:23:19.449Z,101324.53
2023-01-29T06:23:53.796Z,101328.81
2023-01-29T06:24:25.610Z,101327.97
2023-01-29T06:24:57.283Z,101323.66
2023-01-29T06:25:28.949Z,101329.69
2023-01-29T06:26:06.448Z,101330.53
2023-01-29T06:26:38.157Z,101327.09
2023-01-29T06:27:12.046Z,101332.25
2023-01-29T06:27:43.732Z,101333.06
2023-01-29T06:28:15.484Z,101334.81
2023-01-29T06:28:50.918Z,101339.94
2023-01-29T06:29:22.635Z,101339.09
2023-01-29T06:29:54.298Z,101334.81
2023-01-29T06:30:28.363Z,101333.09
2023-01-29T06:31:19.926Z,101334.81
2023-01-29T06:31:56.390Z,101337.38
2023-01-29T06:32:28.172Z,101341.66
2023-01-29T06:33:01.620Z,101339.09
2023-01-29T06:33:35.733Z,101340.81
2023-01-29T06:34:08.072Z,101348.50
2023-01-29T06:34:39.856Z,101351.09
2023-01-29T06:35:12.715Z,101350.22
2023-01-29T06:35:47.364Z,101349.34
2023-01-29T06:36:19.140Z,101359.66
2023-01-29T06:36:50.764Z,101355.34
2023-01-29T06:37:22.414Z,101357.06
2023-01-29T06:37:54.329Z,101355.38
2023-01-29T06:38:26.543Z,101356.19
2023-01-29T06:38:58.219Z,101358.75
2023-01-29T06:39:29.893Z,101357.94
2023-01-29T06:40:01.591Z,101357.94
2023-01-29T06:40:36.049Z,101363.91
2023-01-29T06:41:14.102Z,101363.91
2023-01-29T06:41:46.382Z,101359.63
2023-01-29T06:42:18.119Z,101361.34
2023-01-29T06:42:52.186Z,101357.06
2023-01-29T06:43:24.163Z,101359.63
2023-01-29T06:43:55.884Z,101359.63
2023-01-29T06:44:27.697Z,101360.47
2023-01-29T06:44:59.381Z,101357.94
2023-01-29T06:45:31.051Z,101357.06
2023-01-29T06:46:02.751Z,101362.19
2023-01-29T06:46:34.756Z,101358.78
2023-01-29T06:47:06.499Z,101359.63
2023-01-29T06:47:38.129Z,101357.91
2023-01-29T06:48:09.818Z,101362.22
2023-01-29T06:48:41.486Z,101362.19
2023-01-29T06:49:13.730Z,101363.91
2023-01-29T06:49:45.372Z,101366.47
2023-01-29T06:50:20.128Z,101360.50
2023-01-29T06:50:55.090Z,101362.19
2023-01-29T06:51:34.230Z,101360.47
2023-01-29T06:52:07.516Z,101365.63
2023-01-29T06:52:39.185Z,101368.22
2023-01-29T06:53:10.994Z,101364.78
2023-01-29T06:53:45.329Z,101367.34
2023-01-29T06:54:20.430Z,101363.06
2023-01-29T06:54:52.181Z,101363.06
2023-01-29T06:55:23.838Z,101362.19
2023-01-29T06:55:55.570Z,101363.91
2023-01-29T06:56:27.280Z,101369.88
2023-01-29T06:56:58.943Z,101361.31
2023-01-29T06:57:30.577Z,101364.78
2023-01-29T06:58:11.161Z,101363.94
2023-01-29T06:58:43.636Z,101370.78
2023-01-29T06:59:15.457Z,101371.63
2023-01-29T06:59:49.834Z,101371.63
2023-01-29T07:00:24.210Z,101362.19
2023-01-29T07:01:07.109Z,101358.78
2023-01-29T07:01:41.406Z,101367.34
2023-01-29T07:02:15.963Z,101362.19
2023-01-29T07:02:50.840Z,101372.47
2023-01-29T07:03:22.506Z,101363.06
2023-01-29T07:03:54.273Z,101371.63
2023-01-29T07:04:25.933Z,101370.78
2023-01-29T07:04:59.985Z,101363.03
2023-01-29T07:05:31.682Z,101364.75
2023-01-29T07:06:04.585Z,101369.06
2023-01-29T07:06:36.681Z,101367.31
2023-01-29T07:07:13.165Z,101369.03
2023-01-29T07:07:44.816Z,101368.22
2023-01-29T07:08:16.532Z,101369.91
2023-01-29T07:08:48.166Z,101363.03
2023-01-29T07:09:19.811Z,101356.22
2023-01-29T07:09:51.460Z,101362.19
2023-01-29T07:10:25.860Z,101362.22
2023-01-29T07:11:01.947Z,101352.78
2023-01-29T07:11:35.020Z,101353.66
2023-01-29T07:12:07.323Z,101357.06
2023-01-29T07:12:38.982Z,101356.19
2023-01-29T07:13:10.658Z,101365.63
2023-01-29T07:13:42.325Z,101354.50
2023-01-29T07:14:14.020Z,101361.34
2023-01-29T07:14:48.536Z,101363.06
2023-01-29T07:15:21.410Z,101357.06
2023-01-29T07:15:53.194Z,101362.19
2023-01-29T07:16:26.357Z,101356.22
2023-01-29T07:17:05.706Z,101360.47
2023-01-29T07:17:39.474Z,101360.50
2023-01-29T07:18:16.843Z,101359.63
2023-01-29T07:18:48.502Z,101357.06
2023-01-29T07:19:22.978Z,101357.06
2023-01-29T07:19:54.637Z,101357.91